createdAt,value
2022-10-22T00:00:55.877Z,39.65
2022-10-22T00:04:57.510Z,37.33
2022-10-22T00:08:59.162Z,33.58
2022-10-22T00:13:00.719Z,38.00
2022-10-22T00:17:02.445Z,36.08
2022-10-22T00:21:05.414Z,36.42
2022-10-22T00:25:07.503Z,39.05
2022-10-22T00:29:09.274Z,33.58
2022-10-22T00:33:10.852Z,37.95
2022-10-22T00:37:12.608Z,41.70
2022-10-22T00:41:14.689Z,39.33
2022-10-22T00:45:27.383Z,36.50
2022-10-22T00:49:29.134Z,39.75
2022-10-22T00:53:39.977Z,39.50
2022-10-22T00:57:42.583Z,40.33
2022-10-22T01:01:45.144Z,40.78
2022-10-22T01:05:58.283Z,44.80
2022-10-22T01:10:29.309Z,44.00
2022-10-22T01:15:06.304Z,41.00
2022-10-22T01:19:32.124Z,38.90
2022-10-22T01:23:45.778Z,42.17
2022-10-22T01:28:14.469Z,39.80
2022-10-22T01:32:23.149Z,35.75
2022-10-22T01:36:25.906Z,38.50
2022-10-22T01:40:28.984Z,38.88
2022-10-22T01:44:33.155Z,42.58
2022-10-22T01:48:58.014Z,39.38
2022-10-22T01:57:12.717Z,42.13
2022-10-22T02:01:23.108Z,36.17
2022-10-22T02:05:36.298Z,38.10
2022-10-22T02:09:40.942Z,41.60
2022-10-22T02:13:46.947Z,39.47
2022-10-22T02:17:50.620Z,41.85
2022-10-22T02:21:53.838Z,39.92
2022-10-22T02:26:06.063Z,39.60
2022-10-22T02:34:14.621Z,39.58
2022-10-22T02:38:17.011Z,41.55
2022-10-22T02:42:18.728Z,40.97
2022-10-22T02:46:20.953Z,41.80
2022-10-22T02:50:22.868Z,38.13
2022-10-22T02:54:24.489Z,44.22
2022-10-22T02:58:26.051Z,41.15
2022-10-22T03:02:27.497Z,38.75
2022-10-22T03:06:29.093Z,39.83
2022-10-22T03:10:30.749Z,38.67
2022-10-22T03:14:32.249Z,35.17
2022-10-22T03:18:33.829Z,40.17
2022-10-22T03:22:38.052Z,43.47
2022-10-22T03:26:42.032Z,38.13
2022-10-22T03:30:43.572Z,38.38
2022-10-22T03:34:45.362Z,34.78
2022-10-22T03:38:47.300Z,39.30
2022-10-22T03:42:48.913Z,36.92
2022-10-22T03:46:50.716Z,41.60
2022-10-22T03:50:52.323Z,42.20
2022-10-22T03:54:53.968Z,36.30
2022-10-22T03:58:57.734Z,42.00
2022-10-22T04:02:59.209Z,37.85
2022-10-22T04:07:00.982Z,43.28
2022-10-22T04:11:02.677Z,41.60
2022-10-22T04:15:05.048Z,43.50
2022-10-22T04:19:07.052Z,39.95
2022-10-22T04:23:08.626Z,41.63
2022-10-22T04:27:10.142Z,37.60
2022-10-22T04:31:14.174Z,39.85
2022-10-22T04:35:15.769Z,36.38
2022-10-22T04:39:17.433Z,35.58
2022-10-22T04:43:19.062Z,38.08
2022-10-22T04:47:20.764Z,38.20
2022-10-22T04:51:24.484Z,33.85
2022-10-22T04:55:26.247Z,37.40
2022-10-22T04:59:27.820Z,35.65
2022-10-22T05:03:29.321Z,37.60
2022-10-22T05:07:30.767Z,37.60
2022-10-22T05:11:35.416Z,36.20
2022-10-22T05:15:36.900Z,34.90
2022-10-22T05:19:38.385Z,35.75
2022-10-22T05:23:40.133Z,38.42
2022-10-22T05:27:42.044Z,36.67
2022-10-22T05:31:43.731Z,38.70
2022-10-22T05:35:46.789Z,41.33
2022-10-22T05:39:51.748Z,27.77
2022-10-22T05:43:59.670Z,33.97
2022-10-22T05:48:01.177Z,36.92
2022-10-22T05:52:02.838Z,35.90
2022-10-22T05:56:08.041Z,34.00
2022-10-22T06:00:12.837Z,35.60
2022-10-22T06:04:17.905Z,36.78
2022-10-22T06:08:22.059Z,34.33
2022-10-22T06:12:23.982Z,28.15
2022-10-22T06:16:28.315Z,33.88
2022-10-22T06:20:29.899Z,32.90
2022-10-22T06:24:31.631Z,37.38
2022-10-22T06:28:34.417Z,30.90
2022-10-22T06:32:39.246Z,32.58
2022-10-22T06:36:42.723Z,35.72
2022-10-22T06:40:45.210Z,33.25
2022-10-22T06:44:46.942Z,30.25
2022-10-22T06:48:50.901Z,36.47
2022-10-22T06:52:52.380Z,31.00
2022-10-22T06:56:54.220Z,29.27
2022-10-22T07:01:04.735Z,31.25
2022-10-22T07:05:07.201Z,30.67
2022-10-22T07:09:08.927Z,29.92
2022-10-22T07:13:10.659Z,32.05
2022-10-22T07:17:12.174Z,36.90
2022-10-22T07:21:16.454Z,31.50
2022-10-22T07:25:17.971Z,31.00
2022-10-22T07:29:19.495Z,28.77
2022-10-22T07:33:21.228Z,34.13
2022-10-22T07:37:22.879Z,37.83
2022-10-22T07:41:26.418Z,32.15
2022-10-22T07:45:28.338Z,35.67
2022-10-22T07:49:29.926Z,36.33
2022-10-22T07:53:31.772Z,36.95
2022-10-22T07:57:33.277Z,40.38
2022-10-22T08:01:35.022Z,39.33
2022-10-22T08:05:36.615Z,39.65
2022-10-22T08:09:38.135Z,46.95
2022-10-22T08:13:44.830Z,38.83
2022-10-22T08:17:47.173Z,47.30
2022-10-22T08:21:48.680Z,35.63
2022-10-22T08:25:50.612Z,37.05
2022-10-22T08:29:52.320Z,45.30
2022-10-22T08:33:53.932Z,39.88
2022-10-22T08:37:55.605Z,36.38
2022-10-22T08:42:26.085Z,34.28
2022-10-22T08:46:32.997Z,35.58
2022-10-22T08:51:00.864Z,29.20
2022-10-22T08:55:04.166Z,31.23
2022-10-22T08:59:21.369Z,31.58
2022-10-22T09:03:27.655Z,31.98
2022-10-22T09:07:29.338Z,29.58
2022-10-22T09:11:37.607Z,25.83
2022-10-22T09:15:40.818Z,24.50
2022-10-22T09:20:09.192Z,27.17
2022-10-22T09:24:32.871Z,22.52
2022-10-22T09:28:34.936Z,26.67
2022-10-22T09:32:36.501Z,25.92
2022-10-22T09:36:38.037Z,20.17
2022-10-22T09:40:50.530Z,21.92
2022-10-22T09:44:55.004Z,19.58
2022-10-22T09:49:03.402Z,18.15
2022-10-22T09:53:14.051Z,17.63
2022-10-22T09:57:22.016Z,16.42
2022-10-22T10:01:33.758Z,13.80
2022-10-22T10:05:37.534Z,13.27
2022-10-22T10:09:39.545Z,12.32
2022-10-22T10:13:46.285Z,12.70
2022-10-22T10:18:00.041Z,10.70
2022-10-22T10:22:18.016Z,11.68
2022-10-22T10:26:31.541Z,8.57
2022-10-22T10:30:38.676Z,10.35
2022-10-22T10:35:02.851Z,10.07
2022-10-22T10:39:23.989Z,10.57
2022-10-22T10:43:30.427Z,7.72
2022-10-22T10:48:09.919Z,9.57
2022-10-22T10:53:04.412Z,7.75
2022-10-22T10:57:22.031Z,7.82
2022-10-22T11:01:36.085Z,6.95
2022-10-22T11:05:50.171Z,6.32
2022-10-22T11:10:02.207Z,6.35
2022-10-22T11:14:13.932Z,5.95
2022-10-22T11:18:28.362Z,7.03
2022-10-22T11:23:06.592Z,6.53
2022-10-22T11:27:19.693Z,6.25
2022-10-22T11:31:24.779Z,8.80
2022-10-22T11:35:31.450Z,7.53
2022-10-22T11:39:42.116Z,7.68
2022-10-22T11:44:03.033Z,6.40
2022-10-22T11:48:10.390Z,8.48
2022-10-22T11:52:45.621Z,8.07
2022-10-22T11:56:47.204Z,7.57
2022-10-22T12:00:49.466Z,8.35
2022-10-22T12:04:51.107Z,8.40
2022-10-22T12:08:52.877Z,8.07
2022-10-22T12:13:10.991Z,8.60
2022-10-22T12:17:16.171Z,7.32
2022-10-22T12:21:17.729Z,7.60
2022-10-22T12:25:23.681Z,8.50
2022-10-22T12:29:26.560Z,9.25
2022-10-22T12:33:32.617Z,7.40
2022-10-22T12:37:38.008Z,8.65
2022-10-22T12:41:40.478Z,7.68
2022-10-22T12:45:44.890Z,9.35
2022-10-22T12:49:49.183Z,6.05
2022-10-22T12:57:54.814Z,5.63
2022-10-22T13:01:56.935Z,5.45
2022-10-22T13:06:23.937Z,5.53
2022-10-22T13:10:32.220Z,5.85
2022-10-22T13:14:38.060Z,5.55
2022-10-22T13:18:40.889Z,5.90
2022-10-22T13:23:04.999Z,6.13
2022-10-22T13:27:09.425Z,6.93
2022-10-22T13:31:20.266Z,5.18
2022-10-22T13:35:26.327Z,4.13
2022-10-22T13:39:27.839Z,4.50
2022-10-22T13:43:29.359Z,4.75
2022-10-22T13:47:31.084Z,5.03
2022-10-22T13:51:35.322Z,5.07
2022-10-22T13:55:36.838Z,5.57
2022-10-22T13:59:38.321Z,2.83
2022-10-22T14:03:40.498Z,2.70
2022-10-22T14:07:42.226Z,3.03
2022-10-22T14:11:44.043Z,2.47
2022-10-22T14:15:48.162Z,2.40
2022-10-22T14:19:49.865Z,2.45
2022-10-22T14:23:52.780Z,3.67
2022-10-22T14:27:54.710Z,1.95
2022-10-22T14:31:56.445Z,2.90
2022-10-22T14:35:59.690Z,1.98
2022-10-22T14:40:02.506Z,4.05
2022-10-22T14:44:04.461Z,3.10
2022-10-22T14:48:06.477Z,1.77
2022-10-22T14:52:10.580Z,2.05
2022-10-22T14:56:16.717Z,2.35
2022-10-22T15:00:18.628Z,3.40
2022-10-22T15:04:20.167Z,3.13
2022-10-22T15:08:21.768Z,2.90
2022-10-22T15:12:23.336Z,2.28
2022-10-22T15:16:25.678Z,2.05
2022-10-22T15:20:27.339Z,3.13
2022-10-22T15:24:28.900Z,2.33
2022-10-22T15:28:30.381Z,2.95
2022-10-22T15:32:33.595Z,3.17
2022-10-22T15:36:35.180Z,3.88
2022-10-22T15:40:36.844Z,3.70
2022-10-22T15:44:39.826Z,5.45
2022-10-22T15:48:41.919Z,8.43
2022-10-22T15:52:43.388Z,9.55
2022-10-22T15:56:45.860Z,9.60
2022-10-22T16:00:47.451Z,10.23
2022-10-22T16:04:49.035Z,11.38
2022-10-22T16:08:50.517Z,11.60
2022-10-22T16:12:54.411Z,13.93
2022-10-22T16:16:56.705Z,16.52
2022-10-22T16:20:58.797Z,17.50
2022-10-22T16:25:00.311Z,17.52
2022-10-22T16:29:02.744Z,18.33
2022-10-22T16:33:06.304Z,18.95
2022-10-22T16:37:10.239Z,18.63
2022-10-22T16:41:20.716Z,21.10
2022-10-22T16:45:22.540Z,21.38
2022-10-22T16:49:24.270Z,23.42
2022-10-22T16:53:31.301Z,24.27
2022-10-22T16:57:34.069Z,23.48
2022-10-22T17:01:40.598Z,25.08
2022-10-22T17:05:43.003Z,25.80
2022-10-22T17:09:44.627Z,21.88
2022-10-22T17:13:48.939Z,25.63
2022-10-22T17:17:53.582Z,25.00
2022-10-22T17:21:58.362Z,23.90
2022-10-22T17:26:08.187Z,25.30
2022-10-22T17:30:17.270Z,24.55
2022-10-22T17:34:18.857Z,29.50
2022-10-22T17:38:20.489Z,27.58
2022-10-22T17:42:22.086Z,28.20
2022-10-22T17:46:26.090Z,32.20
2022-10-22T17:50:30.484Z,24.88
2022-10-22T17:54:33.341Z,27.13
2022-10-22T17:58:34.903Z,29.90
2022-10-22T18:02:36.561Z,31.45
2022-10-22T18:06:38.195Z,30.75
2022-10-22T18:10:41.265Z,27.67
2022-10-22T18:14:47.079Z,34.40
2022-10-22T18:19:02.645Z,29.48
2022-10-22T18:23:05.439Z,31.77
2022-10-22T18:27:07.651Z,30.38
2022-10-22T18:31:12.656Z,32.63
2022-10-22T18:35:14.230Z,32.80
2022-10-22T18:39:16.098Z,31.30
2022-10-22T18:43:18.564Z,31.73
2022-10-22T18:47:20.099Z,35.03
2022-10-22T18:51:22.791Z,29.23
2022-10-22T18:55:28.264Z,31.38
2022-10-22T18:59:30.617Z,30.65
2022-10-22T19:03:32.135Z,31.77
2022-10-22T19:07:36.643Z,33.60
2022-10-22T19:11:38.446Z,32.40
2022-10-22T19:15:40.210Z,30.30
2022-10-22T19:19:44.515Z,32.13
2022-10-22T19:23:46.385Z,31.40
2022-10-22T19:27:51.670Z,29.00
2022-10-22T19:31:53.803Z,28.75
2022-10-22T19:35:55.662Z,28.40
2022-10-22T19:39:57.175Z,29.65
2022-10-22T19:44:00.496Z,25.13
2022-10-22T19:48:02.104Z,28.60
2022-10-22T19:52:03.970Z,25.90
2022-10-22T19:56:08.576Z,23.08
2022-10-22T20:00:10.863Z,25.85
2022-10-22T20:04:17.796Z,22.58
2022-10-22T20:08:19.589Z,23.10
2022-10-22T20:12:21.052Z,20.40
2022-10-22T20:16:24.849Z,19.65
2022-10-22T20:20:26.690Z,20.23
2022-10-22T20:24:52.448Z,19.17
2022-10-22T20:28:55.892Z,20.98
2022-10-22T20:32:57.542Z,17.23
2022-10-22T20:36:59.036Z,17.27
2022-10-22T20:41:21.010Z,16.60
2022-10-22T20:45:22.521Z,18.15
2022-10-22T20:49:24.305Z,15.52
2022-10-22T20:53:27.522Z,15.98
2022-10-22T20:57:29.406Z,15.68
2022-10-22T21:01:42.775Z,16.65
2022-10-22T21:05:44.475Z,17.63
2022-10-22T21:09:46.048Z,17.77
2022-10-22T21:13:47.642Z,13.93
2022-10-22T21:17:49.190Z,16.90
2022-10-22T21:21:50.955Z,17.70
2022-10-22T21:25:57.402Z,17.05
2022-10-22T21:29:59.027Z,16.80
2022-10-22T21:34:00.836Z,15.75
2022-10-22T21:38:02.378Z,14.93
2022-10-22T21:42:03.997Z,16.42
2022-10-22T21:46:08.482Z,14.93
2022-10-22T21:50:10.348Z,14.77
2022-10-22T21:54:12.626Z,15.93
2022-10-22T21:58:14.305Z,17.20
2022-10-22T22:02:15.875Z,15.10
2022-10-22T22:06:21.726Z,13.35
2022-10-22T22:10:26.458Z,14.93
2022-10-22T22:14:28.147Z,17.13
2022-10-22T22:18:31.075Z,13.60
2022-10-22T22:22:33.365Z,14.20
2022-10-22T22:26:36.150Z,13.45
2022-10-22T22:30:37.754Z,14.65
2022-10-22T22:34:39.961Z,16.33
2022-10-22T22:38:41.986Z,15.90
2022-10-22T22:42:43.481Z,14.02
2022-10-22T22:46:45.240Z,15.88
2022-10-22T22:50:48.166Z,17.23
2022-10-22T22:54:49.694Z,14.52
2022-10-22T22:58:51.487Z,12.40
2022-10-22T23:02:56.007Z,14.98
2022-10-22T23:06:57.645Z,16.77
2022-10-22T23:11:08.469Z,15.35
2022-10-22T23:15:10.702Z,17.35
2022-10-22T23:19:15.124Z,13.80
2022-10-22T23:23:16.893Z,16.30
2022-10-22T23:27:18.462Z,15.23
2022-10-22T23:31:21.734Z,17.35
2022-10-22T23:35:23.369Z,17.13
2022-10-22T23:39:27.174Z,14.65
2022-10-22T23:43:29.593Z,18.15
2022-10-22T23:47:31.179Z,17.23
2022-10-22T23:51:32.740Z,18.10
2022-10-22T23:55:37.279Z,17.90
2022-10-22T23:59:38.824Z,17.48
